createdAt,value
2019-05-22T00:00:23.919Z,0.00
2019-05-22T00:01:23.879Z,0.00
2019-05-22T00:02:23.893Z,0.00
2019-05-22T00:03:23.991Z,0.00
2019-05-22T00:04:23.849Z,0.00
2019-05-22T00:05:23.862Z,0.00
2019-05-22T00:06:23.826Z,0.00
2019-05-22T00:07:23.824Z,0.00
2019-05-22T00:08:23.810Z,0.00
2019-05-22T00:09:23.957Z,0.00
2019-05-22T00:10:23.781Z,0.00
2019-05-22T00:11:23.760Z,0.00
2019-05-22T00:12:23.760Z,0.00
2019-05-22T00:13:23.770Z,0.00
2019-05-22T00:14:23.748Z,0.00
2019-05-22T00:15:23.851Z,0.00
2019-05-22T00:16:23.744Z,0.00
2019-05-22T00:17:23.740Z,0.00
2019-05-22T00:18:23.803Z,0.00
2019-05-22T00:19:23.760Z,0.00
2019-05-22T00:20:23.691Z,0.00
2019-05-22T00:21:23.663Z,0.00
2019-05-22T00:22:23.686Z,0.00
2019-05-22T00:23:23.682Z,0.00
2019-05-22T00:24:23.734Z,0.00
2019-05-22T00:25:23.646Z,0.00
2019-05-22T00:26:23.639Z,0.00
2019-05-22T00:27:23.593Z,0.00
2019-05-22T00:28:23.603Z,0.00
2019-05-22T00:29:23.696Z,0.00
2019-05-22T00:30:23.590Z,0.00
2019-05-22T00:31:23.541Z,0.00
2019-05-22T00:32:23.549Z,0.00
2019-05-22T00:33:23.522Z,0.00
2019-05-22T00:34:23.623Z,0.00
2019-05-22T00:35:23.533Z,0.00
2019-05-22T00:36:23.599Z,0.00
2019-05-22T00:37:23.499Z,0.00
2019-05-22T00:38:23.478Z,0.00
2019-05-22T00:39:23.482Z,0.00
2019-05-22T00:40:23.521Z,0.00
2019-05-22T00:41:23.454Z,0.00
2019-05-22T00:42:23.454Z,0.00
2019-05-22T00:43:23.413Z,0.00
2019-05-22T00:44:23.443Z,0.00
2019-05-22T00:45:23.513Z,0.00
2019-05-22T00:46:23.516Z,0.00
2019-05-22T00:47:23.379Z,0.00
2019-05-22T00:48:23.386Z,0.00
2019-05-22T00:49:23.380Z,0.00
2019-05-22T00:50:23.350Z,0.00
2019-05-22T00:51:23.343Z,0.00
2019-05-22T00:52:23.336Z,0.00
2019-05-22T00:53:23.344Z,0.00
2019-05-22T00:54:23.318Z,0.00
2019-05-22T00:55:23.304Z,0.00
2019-05-22T00:56:23.374Z,0.00
2019-05-22T00:57:23.394Z,0.00
2019-05-22T00:58:23.258Z,0.00
2019-05-22T00:59:23.263Z,0.00
2019-05-22T01:00:23.239Z,0.00
2019-05-22T01:01:23.234Z,0.00
2019-05-22T01:02:23.342Z,0.00
2019-05-22T01:03:23.225Z,0.00
2019-05-22T02:21:15.205Z,0.00
2019-05-22T02:22:15.188Z,0.00
2019-05-22T02:23:15.215Z,0.00
2019-05-22T02:24:15.207Z,0.00
2019-05-22T02:25:15.243Z,0.00
2019-05-22T02:26:15.175Z,0.00
2019-05-22T02:27:15.145Z,0.00
2019-05-22T02:28:15.155Z,0.00
2019-05-22T02:29:15.129Z,0.00
2019-05-22T02:30:15.162Z,0.00
2019-05-22T02:31:15.103Z,0.00
2019-05-22T02:32:15.087Z,0.00
2019-05-22T02:33:15.086Z,0.00
2019-05-22T02:34:15.121Z,0.00
2019-05-22T02:35:15.077Z,0.00
2019-05-22T02:36:15.062Z,0.00
2019-05-22T02:37:15.068Z,0.00
2019-05-22T02:38:15.031Z,0.00
2019-05-22T02:39:15.068Z,0.00
2019-05-22T02:40:15.023Z,0.00
2019-05-22T02:41:15.032Z,0.00
2019-05-22T02:42:15.013Z,0.00
2019-05-22T02:43:14.980Z,0.00
2019-05-22T02:44:14.956Z,0.00
2019-05-22T02:45:14.968Z,0.00
2019-05-22T02:46:14.957Z,0.00
2019-05-22T02:47:20.025Z,0.00
2019-05-22T02:48:15.938Z,0.00
2019-05-22T02:49:14.907Z,0.00
2019-05-22T02:50:14.942Z,0.00
2019-05-22T02:51:14.958Z,0.00
2019-05-22T02:52:14.887Z,0.00
2019-05-22T02:53:14.900Z,0.00
2019-05-22T02:54:14.869Z,0.00
2019-05-22T02:55:14.859Z,0.00
2019-05-22T02:56:14.852Z,0.00
2019-05-22T02:57:14.830Z,0.00
2019-05-22T02:58:14.812Z,0.00
2019-05-22T02:59:14.789Z,0.00
2019-05-22T03:00:14.808Z,0.00
2019-05-22T03:01:14.771Z,0.00
2019-05-22T03:02:14.881Z,0.00
2019-05-22T03:03:14.777Z,0.00
2019-05-22T03:04:14.768Z,0.00
2019-05-22T03:05:14.753Z,0.00
2019-05-22T03:06:14.738Z,0.00
2019-05-22T03:07:14.709Z,0.00
2019-05-22T03:08:14.699Z,0.00
2019-05-22T03:09:14.680Z,0.00
2019-05-22T03:10:14.697Z,0.00
2019-05-22T03:11:14.675Z,0.00
2019-05-22T03:12:14.661Z,0.00
2019-05-22T03:13:14.658Z,0.00
2019-05-22T03:14:14.662Z,0.00
2019-05-22T03:15:14.641Z,0.00
2019-05-22T03:16:14.640Z,0.00
2019-05-22T03:17:14.711Z,0.00
2019-05-22T03:18:14.614Z,0.00
2019-05-22T03:19:14.574Z,0.00
2019-05-22T03:20:14.559Z,0.00
2019-05-22T03:21:14.550Z,0.00
2019-05-22T03:22:14.570Z,0.00
2019-05-22T03:23:14.643Z,0.00
2019-05-22T03:24:14.550Z,0.00
2019-05-22T03:25:14.641Z,0.00
2019-05-22T03:26:14.534Z,0.00
2019-05-22T03:27:14.531Z,0.00
2019-05-22T03:28:14.478Z,0.00
2019-05-22T03:29:14.489Z,0.00
2019-05-22T03:30:14.461Z,0.00
2019-05-22T03:31:14.585Z,0.00
2019-05-22T03:32:14.476Z,0.00
2019-05-22T03:33:14.569Z,0.00
2019-05-22T03:34:14.425Z,0.00
2019-05-22T03:35:14.401Z,0.00
2019-05-22T03:36:14.412Z,0.00
2019-05-22T03:37:14.505Z,0.00
2019-05-22T03:38:14.543Z,0.00
2019-05-22T03:39:14.382Z,0.00
2019-05-22T03:40:14.350Z,5.62
2019-05-22T03:41:14.344Z,5.62
2019-05-22T03:42:14.352Z,5.62
2019-05-22T03:43:14.351Z,5.62
2019-05-22T03:44:14.456Z,5.62
2019-05-22T03:45:14.323Z,5.62
2019-05-22T03:46:14.312Z,5.62
2019-05-22T03:47:14.276Z,5.62
2019-05-22T03:48:14.261Z,5.62
2019-05-22T03:49:29.240Z,11.25
2019-05-22T03:50:15.264Z,11.25
2019-05-22T03:51:14.308Z,11.25
2019-05-22T03:52:14.226Z,5.62
2019-05-22T03:53:14.213Z,5.62
2019-05-22T03:54:14.255Z,11.25
2019-05-22T03:55:14.359Z,11.25
2019-05-22T03:56:14.203Z,16.88
2019-05-22T03:57:14.195Z,16.88
2019-05-22T03:58:14.161Z,16.88
2019-05-22T03:59:14.163Z,16.88
2019-05-22T04:00:14.275Z,16.88
2019-05-22T04:01:14.123Z,16.88
2019-05-22T04:02:14.145Z,16.88
2019-05-22T04:03:14.133Z,22.50
2019-05-22T04:04:14.105Z,22.50
2019-05-22T04:05:14.095Z,22.50
2019-05-22T04:06:14.192Z,22.50
2019-05-22T04:07:14.052Z,22.50
2019-05-22T04:08:14.043Z,22.50
2019-05-22T04:09:14.067Z,22.50
2019-05-22T04:10:14.053Z,28.12
2019-05-22T04:11:14.153Z,33.75
2019-05-22T04:12:14.024Z,28.12
2019-05-22T04:13:13.993Z,33.75
2019-05-22T04:14:14.003Z,28.12
2019-05-22T04:15:13.994Z,28.12
2019-05-22T04:16:13.992Z,28.12
2019-05-22T04:17:14.025Z,22.50
2019-05-22T04:18:13.961Z,28.12
2019-05-22T04:19:13.924Z,28.12
2019-05-22T04:20:13.921Z,28.12
2019-05-22T04:21:13.925Z,28.12
2019-05-22T04:22:13.912Z,22.50
2019-05-22T04:23:13.886Z,22.50
2019-05-22T04:24:13.875Z,22.50
2019-05-22T04:25:13.865Z,22.50
2019-05-22T04:26:13.917Z,28.12
2019-05-22T04:27:13.849Z,22.50
2019-05-22T04:28:13.825Z,28.12
2019-05-22T04:29:13.895Z,22.50
2019-05-22T04:30:13.819Z,22.50
2019-05-22T04:31:13.825Z,22.50
2019-05-22T04:32:13.810Z,22.50
2019-05-22T04:33:13.819Z,22.50
2019-05-22T04:34:13.794Z,28.12
2019-05-22T04:35:13.758Z,28.12
2019-05-22T04:36:13.767Z,28.12
2019-05-22T04:37:13.759Z,28.12
2019-05-22T04:38:13.726Z,28.12
2019-05-22T04:39:13.721Z,28.12
2019-05-22T04:40:13.706Z,28.12
2019-05-22T04:41:13.696Z,28.12
2019-05-22T04:42:13.696Z,22.50
2019-05-22T04:43:13.667Z,28.12
2019-05-22T04:44:13.670Z,28.12
2019-05-22T04:45:13.688Z,28.12
2019-05-22T04:46:13.650Z,28.12
2019-05-22T04:47:13.639Z,33.75
2019-05-22T04:48:13.629Z,33.75
2019-05-22T04:49:13.605Z,33.75
2019-05-22T04:50:13.599Z,33.75
2019-05-22T04:51:13.617Z,39.38
2019-05-22T04:52:13.585Z,33.75
2019-05-22T04:53:13.571Z,28.12
2019-05-22T04:54:13.557Z,28.12
2019-05-22T04:55:13.549Z,28.12
2019-05-22T04:56:13.541Z,28.12
2019-05-22T04:57:13.539Z,33.75
2019-05-22T04:58:13.506Z,33.75
2019-05-22T04:59:13.498Z,39.38
2019-05-22T05:00:13.488Z,39.38
2019-05-22T05:01:13.477Z,45.00
2019-05-22T05:02:13.482Z,45.00
2019-05-22T05:03:13.478Z,45.00
2019-05-22T05:04:13.450Z,45.00
2019-05-22T05:05:13.436Z,45.00
2019-05-22T05:06:13.428Z,39.38
2019-05-22T05:07:13.433Z,39.38
2019-05-22T05:08:13.527Z,39.38
2019-05-22T05:09:13.419Z,39.38
2019-05-22T05:10:13.407Z,45.00
2019-05-22T05:11:13.406Z,45.00
2019-05-22T05:12:13.407Z,45.00
2019-05-22T05:13:13.428Z,45.00
2019-05-22T05:14:13.347Z,45.00
2019-05-22T05:15:13.358Z,45.00
2019-05-22T05:16:13.347Z,45.00
2019-05-22T05:17:13.339Z,45.00
2019-05-22T05:18:13.307Z,45.00
2019-05-22T05:19:13.453Z,45.00
2019-05-22T05:20:22.055Z,50.62
2019-05-22T05:21:14.267Z,50.62
2019-05-22T05:22:13.291Z,50.62
2019-05-22T05:23:21.066Z,50.62
2019-05-22T05:24:13.267Z,50.62
2019-05-22T05:25:13.306Z,50.62
2019-05-22T05:26:13.245Z,50.62
2019-05-22T05:27:13.234Z,50.62
2019-05-22T05:28:13.227Z,50.62
2019-05-22T05:29:13.217Z,50.62
2019-05-22T05:30:13.196Z,56.25
2019-05-22T05:31:13.187Z,50.62
2019-05-22T05:32:13.177Z,50.62
2019-05-22T05:33:13.147Z,50.62
2019-05-22T05:34:13.259Z,56.25
2019-05-22T05:35:13.162Z,50.62
2019-05-22T05:36:13.239Z,56.25
2019-05-22T05:37:13.096Z,61.88
2019-05-22T05:38:13.103Z,67.50
2019-05-22T05:39:13.097Z,67.50
2019-05-22T05:40:13.116Z,67.50
2019-05-22T05:41:13.221Z,73.12
2019-05-22T05:42:13.063Z,73.12
2019-05-22T05:43:13.035Z,73.12
2019-05-22T05:44:13.034Z,78.75
2019-05-22T05:45:13.713Z,73.12
2019-05-22T05:46:13.013Z,73.12
2019-05-22T05:47:13.017Z,73.12
2019-05-22T05:48:13.100Z,67.50
2019-05-22T05:49:13.003Z,73.12
2019-05-22T05:50:12.987Z,73.12
2019-05-22T05:51:12.980Z,73.12
2019-05-22T05:52:12.981Z,73.12
2019-05-22T05:53:12.936Z,73.12
2019-05-22T05:54:13.040Z,67.50
2019-05-22T05:55:12.920Z,73.12
2019-05-22T05:56:12.920Z,84.38
2019-05-22T05:57:12.908Z,84.38
2019-05-22T05:58:12.900Z,84.38
2019-05-22T05:59:12.992Z,90.00
2019-05-22T06:00:12.868Z,106.88
2019-05-22T06:01:12.875Z,112.50
2019-05-22T06:02:12.858Z,95.62
2019-05-22T06:03:12.858Z,101.25
2019-05-22T06:04:12.820Z,106.88
2019-05-22T06:05:12.799Z,112.50
2019-05-22T06:06:12.808Z,101.25
2019-05-22T06:07:12.815Z,95.62
2019-05-22T06:08:12.791Z,101.25
2019-05-22T06:09:12.859Z,106.88
2019-05-22T06:10:12.799Z,112.50
2019-05-22T06:11:12.759Z,112.50
2019-05-22T06:12:12.755Z,112.50
2019-05-22T06:13:12.710Z,118.12
2019-05-22T06:14:12.700Z,118.12
2019-05-22T06:15:12.825Z,118.12
2019-05-22T06:16:12.740Z,118.12
2019-05-22T06:17:12.708Z,106.88
2019-05-22T06:18:12.693Z,112.50
2019-05-22T06:19:12.691Z,112.50
2019-05-22T06:20:12.682Z,106.88
2019-05-22T06:21:12.651Z,106.88
2019-05-22T06:22:12.640Z,106.88
2019-05-22T06:23:12.611Z,118.12
2019-05-22T06:24:12.618Z,118.12
2019-05-22T06:25:12.667Z,123.75
2019-05-22T06:26:12.597Z,123.75
2019-05-22T06:27:12.590Z,123.75
2019-05-22T06:28:12.558Z,112.50
2019-05-22T06:29:12.561Z,112.50
2019-05-22T06:30:12.650Z,123.75
2019-05-22T06:31:12.563Z,135.00
2019-05-22T06:32:12.532Z,146.25
2019-05-22T06:33:12.518Z,146.25
2019-05-22T06:34:12.479Z,146.25
2019-05-22T06:35:12.481Z,140.62
2019-05-22T06:36:12.604Z,146.25
2019-05-22T06:37:12.556Z,146.25
2019-05-22T06:38:12.453Z,146.25
2019-05-22T06:39:12.445Z,140.62
2019-05-22T06:40:12.439Z,140.62
2019-05-22T06:41:12.401Z,146.25
2019-05-22T06:42:12.438Z,168.75
2019-05-22T06:43:12.521Z,174.38
2019-05-22T06:44:12.416Z,174.38
2019-05-22T06:45:12.384Z,196.88
2019-05-22T06:46:12.381Z,225.00
2019-05-22T06:47:12.373Z,230.62
2019-05-22T06:48:12.475Z,213.75
2019-05-22T06:49:12.355Z,225.00
2019-05-22T06:50:12.342Z,225.00
2019-05-22T06:51:19.567Z,225.00
2019-05-22T06:52:13.422Z,225.00
2019-05-22T06:53:12.282Z,208.12
2019-05-22T06:54:12.302Z,202.50
2019-05-22T06:55:12.382Z,202.50
2019-05-22T06:56:12.259Z,202.50
2019-05-22T06:57:12.241Z,202.50
2019-05-22T06:58:12.255Z,202.50
2019-05-22T06:59:12.237Z,208.12
2019-05-22T07:00:15.036Z,208.12
2019-05-22T07:01:12.317Z,208.12
2019-05-22T07:02:12.228Z,213.75
2019-05-22T07:03:12.163Z,208.12
2019-05-22T07:04:12.262Z,213.75
2019-05-22T07:05:12.173Z,213.75
2019-05-22T07:06:12.163Z,213.75
2019-05-22T07:07:12.537Z,208.12
2019-05-22T07:08:12.146Z,208.12
2019-05-22T07:09:12.239Z,202.50
2019-05-22T07:10:12.104Z,208.12
2019-05-22T07:11:12.086Z,213.75
2019-05-22T07:12:12.073Z,213.75
2019-05-22T07:13:12.074Z,219.38
2019-05-22T07:14:12.093Z,213.75
2019-05-22T07:15:12.046Z,225.00
2019-05-22T07:16:12.051Z,247.50
2019-05-22T07:17:12.136Z,247.50
2019-05-22T07:18:13.115Z,247.50
2019-05-22T07:19:12.016Z,253.12
2019-05-22T07:20:12.024Z,270.00
2019-05-22T07:21:12.043Z,286.88
2019-05-22T07:22:11.954Z,298.12
2019-05-22T07:23:12.003Z,303.75
2019-05-22T07:24:11.938Z,303.75
2019-05-22T07:25:11.948Z,275.62
2019-05-22T07:26:11.936Z,303.75
2019-05-22T07:27:12.062Z,315.00
2019-05-22T07:28:11.928Z,326.25
2019-05-22T07:29:11.919Z,371.25
2019-05-22T07:30:11.890Z,371.25
2019-05-22T07:31:11.862Z,393.75
2019-05-22T07:32:11.854Z,376.88
2019-05-22T07:33:11.855Z,320.62
2019-05-22T07:34:11.855Z,348.75
2019-05-22T07:35:11.844Z,298.12
2019-05-22T07:36:16.481Z,275.62
2019-05-22T07:37:12.828Z,270.00
2019-05-22T07:38:11.797Z,303.75
2019-05-22T07:39:11.822Z,309.38
2019-05-22T07:40:11.818Z,309.38
2019-05-22T07:41:11.773Z,315.00
2019-05-22T07:42:11.736Z,331.88
2019-05-22T07:43:11.855Z,331.88
2019-05-22T07:44:11.726Z,309.38
2019-05-22T07:45:11.729Z,309.38
2019-05-22T07:46:11.730Z,309.38
2019-05-22T07:47:11.741Z,303.75
2019-05-22T07:48:11.857Z,292.50
2019-05-22T07:49:11.657Z,281.25
2019-05-22T07:50:11.677Z,281.25
2019-05-22T07:51:11.657Z,281.25
2019-05-22T07:52:11.638Z,270.00
2019-05-22T07:53:11.650Z,264.38
2019-05-22T07:54:11.606Z,258.75
2019-05-22T07:55:11.621Z,270.00
2019-05-22T07:56:11.634Z,270.00
2019-05-22T07:57:11.610Z,275.62
2019-05-22T07:58:11.678Z,292.50
2019-05-22T07:59:11.583Z,286.88
2019-05-22T08:00:11.538Z,281.25
2019-05-22T08:01:11.560Z,292.50
2019-05-22T08:02:11.625Z,281.25
2019-05-22T08:03:11.537Z,309.38
2019-05-22T08:04:11.655Z,303.75
2019-05-22T08:05:11.684Z,292.50
2019-05-22T08:06:11.516Z,286.88
2019-05-22T08:07:11.501Z,270.00
2019-05-22T08:08:11.479Z,258.75
2019-05-22T08:09:11.474Z,264.38
2019-05-22T08:10:11.569Z,275.62
2019-05-22T08:11:11.429Z,275.62
2019-05-22T08:12:11.421Z,264.38
2019-05-22T08:13:11.406Z,253.12
2019-05-22T08:14:11.534Z,264.38
2019-05-22T08:15:11.398Z,270.00
2019-05-22T08:16:11.482Z,264.38
2019-05-22T08:17:11.382Z,281.25
2019-05-22T08:18:11.380Z,286.88
2019-05-22T08:19:11.390Z,298.12
2019-05-22T08:20:11.319Z,315.00
2019-05-22T08:21:11.311Z,348.75
2019-05-22T08:22:11.360Z,399.38
2019-05-22T08:23:11.289Z,433.12
2019-05-22T08:24:11.423Z,444.38
2019-05-22T08:25:11.293Z,478.12
2019-05-22T08:26:11.309Z,495.00
2019-05-22T08:27:11.288Z,511.88
2019-05-22T08:28:11.260Z,528.75
2019-05-22T08:29:11.371Z,562.50
2019-05-22T08:30:11.250Z,585.00
2019-05-22T08:31:11.230Z,669.38
2019-05-22T08:32:11.195Z,725.62
2019-05-22T08:33:11.195Z,765.00
2019-05-22T08:34:11.174Z,855.00
2019-05-22T08:35:11.212Z,933.75
2019-05-22T08:36:11.170Z,1029.38
2019-05-22T08:37:11.279Z,1080.00
2019-05-22T08:38:11.129Z,1057.50
2019-05-22T08:39:11.122Z,1006.88
2019-05-22T08:40:11.111Z,900.00
2019-05-22T08:41:11.112Z,871.88
2019-05-22T08:42:11.101Z,826.88
2019-05-22T08:43:11.093Z,770.62
2019-05-22T08:44:16.030Z,731.25
2019-05-22T08:45:12.050Z,669.38
2019-05-22T08:46:11.186Z,646.88
2019-05-22T08:47:11.075Z,680.62
2019-05-22T08:48:11.034Z,669.38
2019-05-22T08:49:11.022Z,641.25
2019-05-22T08:50:11.022Z,624.38
2019-05-22T08:51:11.015Z,601.88
2019-05-22T08:52:22.984Z,630.00
2019-05-22T08:53:11.962Z,590.62
2019-05-22T08:54:10.997Z,545.62
2019-05-22T08:55:10.952Z,568.12
2019-05-22T08:56:10.927Z,545.62
2019-05-22T08:57:11.062Z,590.62
2019-05-22T08:58:11.055Z,596.25
2019-05-22T08:59:19.533Z,607.50
2019-05-22T09:00:12.519Z,641.25
2019-05-22T09:01:10.907Z,635.62
2019-05-22T09:02:10.866Z,658.12
2019-05-22T09:03:10.861Z,793.12
2019-05-22T09:04:10.989Z,995.62
2019-05-22T09:05:10.895Z,1299.38
2019-05-22T09:06:11.071Z,1445.62
2019-05-22T09:07:10.815Z,1383.75
2019-05-22T09:08:10.926Z,1383.75
2019-05-22T09:09:10.816Z,1276.88
2019-05-22T09:10:10.815Z,1068.75
2019-05-22T09:11:10.775Z,950.62
2019-05-22T09:12:10.775Z,922.50
2019-05-22T09:13:10.755Z,995.62
2019-05-22T09:14:10.818Z,1029.38
2019-05-22T09:15:10.724Z,894.38
2019-05-22T09:16:10.730Z,922.50
2019-05-22T09:17:10.731Z,1029.38
2019-05-22T09:18:10.715Z,1091.25
2019-05-22T09:19:10.850Z,978.75
2019-05-22T09:20:10.943Z,883.12
2019-05-22T09:21:10.665Z,748.12
2019-05-22T09:22:10.667Z,669.38
2019-05-22T09:23:10.649Z,691.88
2019-05-22T09:24:10.758Z,714.38
2019-05-22T09:25:10.736Z,703.12
2019-05-22T09:26:10.619Z,748.12
2019-05-22T09:27:10.627Z,832.50
2019-05-22T09:28:10.599Z,871.88
2019-05-22T09:29:10.597Z,826.88
2019-05-22T09:30:10.587Z,804.38
2019-05-22T09:31:10.668Z,753.75
2019-05-22T09:32:10.538Z,686.25
2019-05-22T09:33:10.551Z,652.50
2019-05-22T09:34:10.669Z,691.88
2019-05-22T09:35:10.528Z,759.38
2019-05-22T09:36:10.656Z,742.50
2019-05-22T09:37:10.512Z,736.88
2019-05-22T09:38:10.480Z,753.75
2019-05-22T09:39:10.570Z,725.62
2019-05-22T09:40:10.479Z,714.38
2019-05-22T09:41:10.449Z,748.12
2019-05-22T09:42:10.461Z,810.00
2019-05-22T09:43:10.430Z,832.50
2019-05-22T09:44:10.440Z,871.88
2019-05-22T09:45:10.455Z,860.62
2019-05-22T09:46:10.409Z,843.75
2019-05-22T09:47:10.393Z,838.12
2019-05-22T09:48:10.384Z,843.75
2019-05-22T09:49:10.380Z,900.00
2019-05-22T09:50:10.428Z,967.50
2019-05-22T09:51:10.331Z,1006.88
2019-05-22T09:52:10.342Z,939.38
2019-05-22T09:53:10.324Z,905.62
2019-05-22T09:54:10.325Z,928.12
2019-05-22T09:55:10.427Z,905.62
2019-05-22T09:56:10.300Z,860.62
2019-05-22T09:57:10.271Z,832.50
2019-05-22T09:58:10.261Z,838.12
2019-05-22T09:59:10.242Z,849.38
2019-05-22T10:00:10.234Z,843.75
2019-05-22T10:01:11.837Z,877.50
2019-05-22T10:02:10.232Z,905.62
2019-05-22T10:03:10.192Z,905.62
2019-05-22T10:04:10.213Z,911.25
2019-05-22T10:05:10.269Z,922.50
2019-05-22T10:06:10.329Z,939.38
2019-05-22T10:07:10.164Z,933.75
2019-05-22T10:08:10.175Z,900.00
2019-05-22T10:09:10.166Z,928.12
2019-05-22T10:10:10.174Z,995.62
2019-05-22T10:11:10.127Z,1085.62
2019-05-22T10:12:10.103Z,1153.12
2019-05-22T10:13:10.098Z,1181.25
2019-05-22T10:14:10.093Z,1108.12
2019-05-22T10:15:10.499Z,1012.50
2019-05-22T10:16:10.057Z,939.38
2019-05-22T10:17:10.074Z,877.50
2019-05-22T10:18:10.175Z,838.12
2019-05-22T10:19:10.055Z,838.12
2019-05-22T10:20:10.305Z,832.50
2019-05-22T10:21:10.020Z,826.88
2019-05-22T10:22:10.135Z,900.00
2019-05-22T10:23:15.334Z,967.50
2019-05-22T10:24:11.109Z,1023.75
2019-05-22T10:25:15.812Z,1023.75
2019-05-22T10:26:10.968Z,1046.25
2019-05-22T10:27:09.959Z,1068.75
2019-05-22T10:28:09.965Z,1051.88
2019-05-22T10:29:10.076Z,1035.00
2019-05-22T10:30:09.926Z,1029.38
2019-05-22T10:31:11.069Z,1029.38
2019-05-22T10:32:09.926Z,1057.50
2019-05-22T10:33:09.896Z,1141.88
2019-05-22T10:34:09.892Z,1248.75
2019-05-22T10:35:09.993Z,1372.50
2019-05-22T10:36:09.867Z,1496.25
2019-05-22T10:37:09.847Z,1518.75
2019-05-22T10:38:09.831Z,1468.12
2019-05-22T10:39:09.838Z,1473.75
2019-05-22T10:40:09.799Z,1462.50
2019-05-22T10:41:09.867Z,1434.38
2019-05-22T10:42:09.811Z,1372.50
2019-05-22T10:43:09.779Z,1316.25
2019-05-22T10:44:09.759Z,1265.62
2019-05-22T10:45:09.777Z,1198.12
2019-05-22T10:46:09.783Z,1215.00
2019-05-22T10:47:09.750Z,1338.75
2019-05-22T10:48:09.839Z,1366.88
2019-05-22T10:49:09.730Z,1395.00
2019-05-22T10:50:09.728Z,1451.25
2019-05-22T10:51:09.670Z,1535.62
2019-05-22T10:52:09.690Z,1552.50
2019-05-22T10:53:09.662Z,1541.25
2019-05-22T10:54:09.658Z,1524.38
2019-05-22T10:55:09.667Z,1507.50
2019-05-22T10:56:09.683Z,1473.75
2019-05-22T10:57:09.610Z,1473.75
2019-05-22T10:58:09.765Z,1423.12
2019-05-22T10:59:09.660Z,1209.38
2019-05-22T11:00:09.644Z,1147.50
2019-05-22T11:01:09.575Z,1181.25
2019-05-22T11:02:09.587Z,1355.62
2019-05-22T11:03:09.542Z,1462.50
2019-05-22T11:04:09.522Z,1580.62
2019-05-22T11:05:09.551Z,1771.88
2019-05-22T11:06:09.566Z,1760.62
2019-05-22T11:07:09.565Z,1625.62
2019-05-22T11:08:09.505Z,1490.62
2019-05-22T11:09:09.521Z,1378.12
2019-05-22T11:10:09.513Z,1248.75
2019-05-22T11:11:09.486Z,1198.12
2019-05-22T11:12:09.464Z,1164.38
2019-05-22T11:13:09.447Z,1237.50
2019-05-22T11:14:09.731Z,1451.25
2019-05-22T11:15:09.404Z,2295.00
2019-05-22T11:16:09.555Z,1625.62
2019-05-22T11:17:09.406Z,1558.12
2019-05-22T11:18:09.395Z,1530.00
2019-05-22T11:19:09.509Z,1434.38
2019-05-22T11:20:09.395Z,1462.50
2019-05-22T11:21:09.359Z,1546.88
2019-05-22T11:22:09.339Z,1513.12
2019-05-22T11:23:16.400Z,1698.75
2019-05-22T11:24:09.322Z,1496.25
2019-05-22T11:25:09.300Z,1378.12
2019-05-22T11:26:09.325Z,1299.38
2019-05-22T11:27:09.301Z,1265.62
2019-05-22T11:28:09.290Z,1293.75
2019-05-22T11:29:09.374Z,1276.88
2019-05-22T11:30:09.282Z,1175.62
2019-05-22T11:31:09.241Z,1198.12
2019-05-22T11:32:09.302Z,1254.38
2019-05-22T11:33:09.374Z,1198.12
2019-05-22T11:34:09.235Z,1119.38
2019-05-22T11:35:09.223Z,1141.88
2019-05-22T11:36:09.194Z,1243.12
2019-05-22T11:37:09.193Z,1423.12
2019-05-22T11:38:09.183Z,1350.00
2019-05-22T11:39:09.301Z,1473.75
2019-05-22T11:40:09.166Z,3048.75
2019-05-22T11:41:09.180Z,1665.00
2019-05-22T11:42:09.144Z,1456.88
2019-05-22T11:43:09.154Z,1327.50
2019-05-22T11:44:09.105Z,1198.12
2019-05-22T11:45:09.214Z,1080.00
2019-05-22T11:46:09.095Z,1068.75
2019-05-22T11:47:09.106Z,1175.62
2019-05-22T11:48:09.100Z,1580.62
2019-05-22T11:49:09.075Z,1586.25
2019-05-22T11:50:09.086Z,4528.12
2019-05-22T11:51:09.026Z,3397.50
2019-05-22T11:52:09.036Z,4725.00
2019-05-22T11:53:09.053Z,1479.38
2019-05-22T11:54:09.923Z,1423.12
2019-05-22T11:55:08.990Z,1226.25
2019-05-22T11:56:09.108Z,1136.25
2019-05-22T11:57:08.980Z,1198.12
2019-05-22T11:58:08.968Z,2638.12
2019-05-22T11:59:08.986Z,4713.75
2019-05-22T12:00:09.431Z,1535.62
2019-05-22T12:01:08.920Z,4488.75
2019-05-22T12:02:08.909Z,2829.38
2019-05-22T12:03:09.030Z,2266.88
2019-05-22T12:04:08.909Z,4443.75
2019-05-22T12:05:08.900Z,4702.50
2019-05-22T12:06:08.880Z,3571.88
2019-05-22T12:07:08.881Z,1597.50
2019-05-22T12:08:08.991Z,1507.50
2019-05-22T12:09:08.860Z,2441.25
2019-05-22T12:10:08.952Z,1726.88
2019-05-22T12:11:08.953Z,4505.62
2019-05-22T12:12:08.902Z,3380.62
2019-05-22T12:13:08.824Z,3363.75
2019-05-22T12:14:08.796Z,4072.50
2019-05-22T12:15:08.771Z,4471.88
2019-05-22T12:16:08.785Z,2266.88
2019-05-22T12:17:08.852Z,4246.88
2019-05-22T12:18:08.793Z,1631.25
2019-05-22T12:19:08.746Z,1653.75
2019-05-22T12:20:08.723Z,2227.50
2019-05-22T12:21:08.704Z,1912.50
2019-05-22T12:22:08.714Z,3043.12
2019-05-22T12:23:08.706Z,3127.50
2019-05-22T12:24:13.493Z,4336.88
2019-05-22T12:25:09.655Z,4837.50
2019-05-22T12:26:08.668Z,3560.62
2019-05-22T12:27:08.666Z,4708.12
2019-05-22T12:28:08.745Z,4921.88
2019-05-22T12:29:08.647Z,4882.50
2019-05-22T12:30:08.782Z,4275.00
2019-05-22T12:31:08.628Z,4860.00
2019-05-22T12:32:08.588Z,4736.25
2019-05-22T12:33:13.210Z,4590.00
2019-05-22T12:34:09.597Z,4848.75
2019-05-22T12:35:08.719Z,4741.88
2019-05-22T12:36:08.568Z,4680.00
2019-05-22T12:37:08.568Z,4331.25
2019-05-22T12:38:08.528Z,3268.12
2019-05-22T12:39:08.541Z,2941.88
2019-05-22T12:40:08.535Z,3926.25
2019-05-22T12:41:08.582Z,2058.75
2019-05-22T12:42:08.491Z,1996.88
2019-05-22T12:43:08.470Z,1462.50
2019-05-22T12:44:08.481Z,1535.62
2019-05-22T12:45:08.600Z,2154.38
2019-05-22T12:46:08.492Z,1856.25
2019-05-22T12:47:08.461Z,2458.12
2019-05-22T12:48:08.472Z,2053.12
2019-05-22T12:49:09.150Z,4792.50
2019-05-22T12:50:08.431Z,3943.12
2019-05-22T12:51:08.423Z,4657.50
2019-05-22T12:52:08.507Z,1395.00
2019-05-22T12:53:08.400Z,1366.88
2019-05-22T12:54:08.388Z,4578.75
2019-05-22T12:55:08.348Z,4640.62
2019-05-22T12:56:08.456Z,2778.75
2019-05-22T12:57:08.357Z,1631.25
2019-05-22T12:58:08.427Z,1693.12
2019-05-22T12:59:08.331Z,4196.25
2019-05-22T13:00:08.318Z,4291.88
2019-05-22T13:01:08.299Z,4263.75
2019-05-22T13:02:08.307Z,4128.75
2019-05-22T13:03:08.268Z,3909.38
2019-05-22T13:04:08.288Z,4134.38
2019-05-22T13:05:08.258Z,4325.62
2019-05-22T13:06:08.346Z,4376.25
2019-05-22T13:07:08.249Z,3628.12
2019-05-22T13:08:08.248Z,4179.38
2019-05-22T13:09:08.232Z,1603.12
2019-05-22T13:10:08.209Z,1220.62
2019-05-22T13:11:08.209Z,2553.75
2019-05-22T13:12:08.204Z,1974.38
2019-05-22T13:13:08.223Z,1344.38
2019-05-22T13:14:08.161Z,3965.62
2019-05-22T13:15:10.321Z,3853.12
2019-05-22T13:16:08.243Z,3768.75
2019-05-22T13:17:08.171Z,3892.50
2019-05-22T13:18:08.205Z,3785.62
2019-05-22T13:19:08.134Z,2846.25
2019-05-22T13:20:08.125Z,1125.00
2019-05-22T13:21:08.082Z,1192.50
2019-05-22T13:22:08.176Z,1029.38
2019-05-22T13:23:08.098Z,2036.25
2019-05-22T13:24:08.079Z,4190.62
2019-05-22T13:25:08.043Z,4207.50
2019-05-22T13:26:08.071Z,3943.12
2019-05-22T13:27:08.141Z,1175.62
2019-05-22T13:28:08.014Z,1035.00
2019-05-22T13:29:08.024Z,1040.62
2019-05-22T13:30:08.226Z,984.38
2019-05-22T13:31:07.977Z,961.88
2019-05-22T13:32:08.088Z,1001.25
2019-05-22T13:33:07.991Z,933.75
2019-05-22T13:34:07.936Z,894.38
2019-05-22T13:35:07.963Z,753.75
2019-05-22T13:36:08.069Z,686.25
2019-05-22T13:37:08.019Z,742.50
2019-05-22T13:38:07.911Z,1057.50
2019-05-22T13:39:07.917Z,3993.75
2019-05-22T13:40:18.115Z,2227.50
2019-05-22T13:41:08.882Z,2205.00
2019-05-22T13:42:07.952Z,4123.12
2019-05-22T13:43:07.869Z,3780.00
2019-05-22T13:44:07.860Z,3830.62
2019-05-22T13:45:07.828Z,3774.38
2019-05-22T13:46:07.860Z,3847.50
2019-05-22T13:47:07.950Z,3915.00
2019-05-22T13:48:07.942Z,4145.62
2019-05-22T13:49:07.843Z,3870.00
2019-05-22T13:50:07.781Z,3791.25
2019-05-22T13:51:07.775Z,3836.25
2019-05-22T13:52:07.792Z,3701.25